Moss, TN

11:08 PM CST on December 28, 2014 (GMT -0600)
On the Square | Change Station
CLOSE
Current Station
Personal Weather Station
Location: Celina, TN
Elevation: 574 ft
Nearby Weather Stations

Elev 574 ft 36.55 °N, 85.50 °W | Updated 0 second ago

Overcast
Overcast
39.6 °F
Feels Like 37 °F
N
4.0
Wind Variable Wind from NNE
Gusts 4.0 mph

Today
High -- | Low -- °F
--% Chance of Precip.
Yesterday
High -- | Low -- °F
Precip. -- in
6:53 AM 4:34 PM
First Quarter, 55% visible
Pressure 30.19 in
Visibility 7.0 miles
Clouds Scattered Clouds 500 ft
Overcast 1200 ft
Windchill 37 °F
Dew Point 39 °F
Humidity 97%
Rainfall 0.40 in
Snow Depth Not available.
UV 0 out of 12
Pollen .10 out of 12
Air Quality Not available.
Flu Activity Not available.
METAR KGLW 290435Z AUTO 02005KT 7SM SCT005 OVC012 02/02 A3019 RMK AO2 T00170017

More Conditions Fewer Conditions

Pressure 30.19 in
Visibility 7.0 miles
Clouds Scattered Clouds 500 ft
Overcast 1200 ft
Windchill 37 °F
Dew Point 39 °F
Humidity 97%
Rainfall 0.40 in
Snow Depth Not available.
UV 0 out of 12
Pollen .10 out of 12
Air Quality Not available.
Flu Activity Not available.
METAR KGLW 290435Z AUTO 02005KT 7SM SCT005 OVC012 02/02 A3019 RMK AO2 T00170017

More Conditions Fewer Conditions

10-Day Weather Forecast

Almanac

Astronomy

Dec. 28, 2014 Rise Set
Actual Time
Civil Twilight
Nautical Twilight
Astronomical Twilight
Moon
Length of Visible Light
Length of Day
Tomorrow will be .
, % of the Moon is Illuminated

Today's Extremes

State Highs State Lows

Community

WunderPhotos

Upload Photos

1,781,529 photos uploaded!

WunderBlogs® & News

Nearby

Air Quality

  Air Quality AQ Index Pollutant
Not available.

Snow Depth

Station Depth Elevation

Earthquake Activity

City Distance Mag. Time & Date
Minimum magnitude displayed is 2.5.

Coastal Water Temperatures

Place Temperature

Nearby Weather Stations